Flight Track Log - Related Links

Times and Time Zones

All times are in EDT time to prevent confusion due to time zone crossing. See the USC105 flight status page for this flight to view local times or setup timezone preferences in your user account.

Time Position Orientation Groundspeed Altitude Reporting Facility
EDT Latitude Longitude Course Direction KTS MPH feet Rate Location/Type
Wed 09:58:16 PM 39.8206 -82.9192 73° East 132 152 1,000  Level Indianapolis Center
Wed 09:58:59 PM 39.8275 -82.8903 73° East 122 140 1,800 1,165 Climbing Indianapolis Center
Wed 09:59:59 PM 39.8378 -82.8483 72° East 127 146 3,000 1,190 Climbing Indianapolis Center
Wed 10:01:00 PM 39.8506 -82.8014 70° East 127 146 4,200 1,180 Climbing Indianapolis Center
Wed 10:02:01 PM 39.8631 -82.7569 70° East 129 148 5,400 1,108 Climbing Indianapolis Center
Wed 10:03:10 PM 39.9000 -82.7256 33° Northeast 147 169 6,600 793 Climbing Indianapolis Center
Wed 10:04:02 PM 39.9333 -82.7025 28° Northeast 174 200 7,000 197 Climbing Indianapolis Center
Wed 10:05:12 PM 39.9908 -82.6647 27° Northeast 199 229 7,000  Level Indianapolis Center
Wed 10:06:04 PM 40.0381 -82.6369 24° Northeast 208 239 7,000  Level Indianapolis Center
Wed 10:07:05 PM 40.0939 -82.6019 26° Northeast 221 254 7,000  Level Indianapolis Center
Wed 10:08:05 PM 40.1472 -82.5692 25° Northeast 218 251 7,000  Level Indianapolis Center
Wed 10:09:06 PM 40.2008 -82.5336 27° Northeast 214 246 7,000  Level Indianapolis Center
Wed 10:10:18 PM 40.2661 -82.4881 28° Northeast 216 249 7,000  Level Indianapolis Center
Wed 10:11:19 PM 40.3222 -82.4542 25° Northeast 220 253 7,000  Level Indianapolis Center
Wed 10:12:20 PM 40.3772 -82.4200 25° Northeast 218 251 7,000  Level Indianapolis Center
Wed 10:13:21 PM 40.4319 -82.3853 26° Northeast 216 249 7,000  Level Indianapolis Center
Wed 10:14:23 PM 40.4856 -82.3506 26° Northeast 214 246 7,000  Level Indianapolis Center
Wed 10:15:24 PM 40.5400 -82.3142 27° Northeast 218 251 7,000  Level Indianapolis Center
Wed 10:16:25 PM 40.5947 -82.2794 26° Northeast 217 250 7,000  Level Indianapolis Center
Wed 10:17:26 PM 40.6492 -82.2456 25° Northeast 215 247 7,000  Level Indianapolis Center
Wed 10:18:27 PM 40.7039 -82.2128 24° Northeast 214 246 7,000  Level Indianapolis Center
Wed 10:19:28 PM 40.7586 -82.1767 27° Northeast 216 249 7,000  Level Indianapolis Center
Wed 10:20:29 PM 40.8128 -82.1419 26° Northeast 216 249 7,000  Level Indianapolis Center
Wed 10:21:07 PM 40.8511 -82.1203 23° Northeast 218 251 7,000  Level Cleveland Center
Wed 10:22:07 PM 40.9036 -82.0858 26° Northeast 217 250 7,000  Level Cleveland Center
Wed 10:23:14 PM 40.9625 -82.0486 26° Northeast 215 247 7,000  Level Cleveland Center

Login

Don't have an account? Register now (free) for customized features, flight alerts, and more!